Terminal Aerodrome Forecast
Issued by NWS

Home | Current Version | Previous Version | Text Only | Print | Product List | Glossary On
Versions: 1 2 3 4 5 6 7 8 9 10 11 12 13 14
000
FTAK31 PANC 221148
TAFAVD
TAF
PAVD 221148Z 2212/2312 VRB04KT P6SM VCSH BKN080
     FM230400 VRB03KT 5SM -SN BKN025 OVC045
      AMD LTD TO CLD VIS AND WIND=

USA.gov is the U.S. government's official web portal to all federal, state and local government web resources and services.